Main page
METAR-TAF:

METAR-TAF

Airports :

Rick Husband Amarillo International Airport

Amarillo, Texas, United States

latitude: 35-13-12N, longitude: 101-43-02W, elevation: 3605 ft

Current weather observation

The report was made 1 hour and 4 minutes ago, at 01:53 UTC
Wind 7 mph from the South/Southwest
Temperature 41°F
Humidity 60%
Pressure 30.28 in. Hg
Visibility: 10 miles
Clear sky

METAR: KAMA 150153Z AUTO 21006KT 10SM CLR 05/M02 A3028 RMK AO2 SLP263 T00501022

Time: 20:57 (02:57 UTC)

Forecast

The report was made 3 hours and 37 minutes ago, at 23:20 UTC
Forecast valid from 15 at 00 UTC to 15 at 24 UTC
Wind 12 mph from the West/Southwest
Visibility: 6 miles
Clear sky

TAF: KAMA 142320Z 1500/1524 24010KT P6SM SKC

Weather observations and forecasts of more than 4000 airports (METAR and TAF reports).

The available stations are represented by yellow and red dots on the map.

Hover mouse over dot to see the name of the station.

Then click to see weather observations and forecasts.

To change the map : click on the green buttons with a black cross to zoom in, on the green button with a dash to zoom out, or on the green arrows for adjacent maps.


METAR-TAF: